Panorama, New York
Current Conditions -  °F | °C
As of 10:54 PM on Sunday 23 Nov 2014 (Local Time) from KROC Reporting Station
Overcast Overcast  
Wind Chill: 54°   Ceiling: 15000
Heat Index: 54°   Visibility: 10mi
Dew Point: 35°   Wind: 8mph
Humidity: 49%   Direction: 150°SSE
Pressure: 29.7"   Gusts: NA
Location:  43.1495°N, 77.5063°W
Report Text: KROC 240354Z 15007KT 10SM BKN150 OVC210 12/02 A2970 RMK AO2 SLP063 T01220017
Loading
Personal Weather Stations






























Interactive Weather Map New forecast layout! Learn more

10-Day Weather Forecast

Advertisements
Track Severe Weather on mobile